Time,TemperatureF,DewpointF,PressureIn,WindDirection,WindDirectionDegrees,WindSpeedMPH,WindSpeedGustMPH,Humidity,HourlyPrecipIn,Conditions,Clouds,dailyrainin,SoftwareType,DateUTC
2013-07-02 00:14:00,61.6,57.0,30.05,ENE,64,0.0,-999.0,86,-99.99,,,0.00,weatherlink.com 1.10,2013-07-02 04:14:00,
2013-07-02 00:29:00,61.6,57.0,30.05,North,356,0.0,-999.0,86,-99.99,,,0.00,weatherlink.com 1.10,2013-07-02 04:29:00,
2013-07-02 00:44:00,61.6,57.0,30.04,NE,36,0.0,-999.0,86,-99.99,,,0.00,weatherlink.com 1.10,2013-07-02 04:44:00,
2013-07-02 00:59:00,61.7,58.0,30.04,NNE,27,1.0,-999.0,86,-99.99,,,0.00,weatherlink.com 1.10,2013-07-02 04:59:00,
2013-07-02 01:14:00,61.7,57.0,30.05,North,11,0.0,-999.0,85,-99.99,,,0.00,weatherlink.com 1.10,2013-07-02 05:14:00,
2013-07-02 01:29:00,61.6,57.0,30.05,NNE,19,0.0,-999.0,85,-99.99,,,0.00,weatherlink.com 1.10,2013-07-02 05:29:00,
2013-07-02 01:44:00,61.4,57.0,30.04,NNE,27,0.0,-999.0,85,-99.99,,,0.00,weatherlink.com 1.10,2013-07-02 05:44:00,
2013-07-02 01:59:00,61.3,57.0,30.04,ENE,64,0.0,-999.0,84,-99.99,,,0.00,weatherlink.com 1.10,2013-07-02 05:59:00,
2013-07-02 02:14:00,61.5,56.0,30.04,NNE,24,1.0,-999.0,83,-99.99,,,0.00,weatherlink.com 1.10,2013-07-02 06:14:00,
2013-07-02 02:29:00,61.6,56.0,30.04,NNE,33,1.0,-999.0,83,-99.99,,,0.00,weatherlink.com 1.10,2013-07-02 06:29:00,
2013-07-02 02:44:00,61.7,56.0,30.04,ENE,60,0.0,-999.0,82,-99.99,,,0.00,weatherlink.com 1.10,2013-07-02 06:44:00,
2013-07-02 02:59:00,61.9,56.0,30.03,NE,35,0.0,-999.0,81,-99.99,,,0.00,weatherlink.com 1.10,2013-07-02 06:59:00,
2013-07-02 03:14:00,62.0,56.0,30.03,NE,43,0.0,-999.0,81,-99.99,,,0.00,weatherlink.com 1.10,2013-07-02 07:14:00,
2013-07-02 03:29:00,61.8,56.0,30.02,NE,41,0.0,-999.0,82,-99.99,,,0.00,weatherlink.com 1.10,2013-07-02 07:29:00,
2013-07-02 03:44:00,61.4,57.0,30.02,East,84,0.0,-999.0,84,-99.99,,,0.00,weatherlink.com 1.10,2013-07-02 07:44:00,
2013-07-02 03:59:00,61.0,57.0,30.02,NE,51,0.0,-999.0,86,-99.99,,,0.00,weatherlink.com 1.10,2013-07-02 07:59:00,
2013-07-02 04:14:00,60.6,57.0,30.03,NNE,23,0.0,-999.0,87,-99.99,,,0.00,weatherlink.com 1.10,2013-07-02 08:14:00,
2013-07-02 04:29:00,60.2,57.0,30.02,NNE,23,0.0,-999.0,89,-99.99,,,0.00,weatherlink.com 1.10,2013-07-02 08:29:00,
2013-07-02 04:44:00,60.1,57.0,30.02,NNE,27,0.0,-999.0,89,-99.99,,,0.00,weatherlink.com 1.10,2013-07-02 08:44:00,
2013-07-02 04:59:00,60.1,57.0,30.02,NNE,27,0.0,-999.0,90,-99.99,,,0.00,weatherlink.com 1.10,2013-07-02 08:59:00,
2013-07-02 05:14:00,60.3,57.0,30.03,NNE,26,0.0,-999.0,90,-99.99,,,0.00,weatherlink.com 1.10,2013-07-02 09:14:00,
2013-07-02 05:29:00,60.3,57.0,30.03,NE,51,0.0,-999.0,89,-99.99,,,0.00,weatherlink.com 1.10,2013-07-02 09:29:00,
2013-07-02 05:44:00,60.5,57.0,30.03,NE,50,0.0,-999.0,89,-99.99,,,0.00,weatherlink.com 1.10,2013-07-02 09:44:00,
2013-07-02 05:59:00,60.5,57.0,30.04,ENE,70,0.0,-999.0,89,-99.99,,,0.00,weatherlink.com 1.10,2013-07-02 09:59:00,
2013-07-02 06:14:00,60.3,57.0,30.04,ENE,57,0.0,-999.0,88,-99.99,,,0.00,weatherlink.com 1.10,2013-07-02 10:14:00,
2013-07-02 06:29:00,-999.0,-99.9,30.04,North,-999,-999.0,-999.0,-999,-99.99,,,0.00,weatherlink.com 1.10,2013-07-02 10:29:00,
2013-07-02 06:44:00,-999.0,-99.9,30.03,North,-999,-999.0,-999.0,-999,-99.99,,,0.00,weatherlink.com 1.10,2013-07-02 10:44:00,
2013-07-02 06:59:00,-999.0,-99.9,30.03,North,-999,-999.0,-999.0,-999,-99.99,,,0.00,weatherlink.com 1.10,2013-07-02 10:59:00,
2013-07-02 07:14:00,-999.0,-99.9,30.03,North,-999,-999.0,-999.0,-999,-99.99,,,0.00,weatherlink.com 1.10,2013-07-02 11:14:00,
2013-07-02 07:29:00,-999.0,-99.9,30.04,North,-999,-999.0,-999.0,-999,-99.99,,,0.00,weatherlink.com 1.10,2013-07-02 11:29:00,
2013-07-02 07:44:00,-999.0,-99.9,30.05,North,-999,-999.0,-999.0,-999,-99.99,,,0.00,weatherlink.com 1.10,2013-07-02 11:44:00,
2013-07-02 07:59:00,-999.0,-99.9,30.06,North,-999,-999.0,-999.0,-999,-99.99,,,0.00,weatherlink.com 1.10,2013-07-02 11:59:00,
2013-07-02 08:14:00,-999.0,-99.9,30.06,North,-999,-999.0,-999.0,-999,-99.99,,,0.00,weatherlink.com 1.10,2013-07-02 12:14:00,
2013-07-02 08:29:00,61.9,58.0,30.06,East,98,0.0,-999.0,88,-99.99,,,0.00,weatherlink.com 1.10,2013-07-02 12:29:00,
2013-07-02 08:44:00,62.1,59.0,30.05,North,1,1.0,-999.0,88,-99.99,,,0.00,weatherlink.com 1.10,2013-07-02 12:44:00,
2013-07-02 08:59:00,62.3,58.0,30.05,NE,46,1.0,-999.0,87,-99.99,,,0.00,weatherlink.com 1.10,2013-07-02 12:59:00,
2013-07-02 09:14:00,62.6,58.0,30.06,NE,53,0.0,-999.0,86,-99.99,,,0.00,weatherlink.com 1.10,2013-07-02 13:14:00,
2013-07-02 09:44:00,63.2,59.0,30.06,South,169,0.0,-999.0,86,-99.99,,,0.00,weatherlink.com 1.10,2013-07-02 13:44:00,
2013-07-02 09:59:00,63.5,59.0,30.06,SE,131,1.0,-999.0,85,-99.99,,,0.00,weatherlink.com 1.10,2013-07-02 13:59:00,
2013-07-02 10:14:00,63.7,60.0,30.06,West,267,0.0,-999.0,86,-99.99,,,0.00,weatherlink.com 1.10,2013-07-02 14:14:00,
2013-07-02 10:29:00,64.2,60.0,30.06,NE,44,2.0,-999.0,85,-99.99,,,0.00,weatherlink.com 1.10,2013-07-02 14:29:00,
2013-07-02 10:43:00,64.6,60.0,30.06,NNE,22,3.0,-999.0,85,-99.99,,,0.00,weatherlink.com 1.10,2013-07-02 14:43:00,
2013-07-02 10:58:00,64.8,60.0,30.07,NNE,17,1.0,-999.0,85,-99.99,,,0.00,weatherlink.com 1.10,2013-07-02 14:58:00,
2013-07-02 11:13:00,64.9,60.0,30.07,NE,53,1.0,-999.0,85,-99.99,,,0.00,weatherlink.com 1.10,2013-07-02 15:13:00,
2013-07-02 11:28:00,65.1,61.0,30.07,NNE,25,0.0,-999.0,85,-99.99,,,0.00,weatherlink.com 1.10,2013-07-02 15:28:00,
2013-07-02 11:43:00,65.3,61.0,30.07,NE,55,1.0,-999.0,85,-99.99,,,0.00,weatherlink.com 1.10,2013-07-02 15:43:00,
2013-07-02 11:58:00,65.6,61.0,30.07,ESE,113,1.0,-999.0,85,-99.99,,,0.00,weatherlink.com 1.10,2013-07-02 15:58:00,
2013-07-02 12:13:00,65.7,61.0,30.07,ENE,70,0.0,-999.0,84,-99.99,,,0.00,weatherlink.com 1.10,2013-07-02 16:13:00,
2013-07-02 12:28:00,66.0,61.0,30.07,ENE,68,0.0,-999.0,84,-99.99,,,0.00,weatherlink.com 1.10,2013-07-02 16:28:00,
2013-07-02 12:43:00,66.3,61.0,30.07,West,274,0.0,-999.0,83,-99.99,,,0.00,weatherlink.com 1.10,2013-07-02 16:43:00,
2013-07-02 12:58:00,66.5,61.0,30.07,NE,49,0.0,-999.0,83,-99.99,,,0.00,weatherlink.com 1.10,2013-07-02 16:58:00,
2013-07-02 13:13:00,66.7,61.0,30.07,ENE,66,0.0,-999.0,83,-99.99,,,0.00,weatherlink.com 1.10,2013-07-02 17:13:00,
2013-07-02 13:28:00,67.1,61.0,30.07,ENE,60,0.0,-999.0,82,-99.99,,,0.00,weatherlink.com 1.10,2013-07-02 17:28:00,
2013-07-02 13:43:00,67.5,62.0,30.07,East,94,0.0,-999.0,82,-99.99,,,0.00,weatherlink.com 1.10,2013-07-02 17:43:00,
2013-07-02 13:58:00,67.6,62.0,30.07,NE,46,2.0,-999.0,81,-99.99,,,0.00,weatherlink.com 1.10,2013-07-02 17:58:00,
2013-07-02 14:13:00,67.5,62.0,30.07,ENE,72,0.0,-999.0,82,-99.99,,,0.00,weatherlink.com 1.10,2013-07-02 18:13:00,
2013-07-02 14:28:00,67.5,62.0,30.06,SW,231,0.0,-999.0,83,-99.99,,,0.00,weatherlink.com 1.10,2013-07-02 18:28:00,
2013-07-02 14:43:00,67.7,62.0,30.06,ESE,107,0.0,-999.0,82,-99.99,,,0.00,weatherlink.com 1.10,2013-07-02 18:43:00,
2013-07-02 14:58:00,67.8,63.0,30.07,ESE,107,0.0,-999.0,83,-99.99,,,0.00,weatherlink.com 1.10,2013-07-02 18:58:00,
2013-07-02 15:13:00,67.9,63.0,30.06,ENE,70,0.0,-999.0,83,-99.99,,,0.00,weatherlink.com 1.10,2013-07-02 19:13:00,
2013-07-02 15:28:00,68.4,63.0,30.06,ENE,68,0.0,-999.0,82,-99.99,,,0.00,weatherlink.com 1.10,2013-07-02 19:28:00,
2013-07-02 15:43:00,69.3,63.0,30.06,East,86,1.0,-999.0,81,-99.99,,,0.00,weatherlink.com 1.10,2013-07-02 19:43:00,
2013-07-02 15:58:00,69.3,63.0,30.06,East,98,0.0,-999.0,81,-99.99,,,0.00,weatherlink.com 1.10,2013-07-02 19:58:00,
2013-07-02 16:13:00,69.4,63.0,30.06,ENE,64,1.0,-999.0,81,-99.99,,,0.00,weatherlink.com 1.10,2013-07-02 20:13:00,
2013-07-02 16:28:00,69.3,64.0,30.05,ESE,115,0.0,-999.0,82,-99.99,,,0.00,weatherlink.com 1.10,2013-07-02 20:28:00,
2013-07-02 16:43:00,70.4,64.0,30.05,East,79,0.0,-999.0,81,-99.99,,,0.00,weatherlink.com 1.10,2013-07-02 20:43:00,
2013-07-02 16:58:00,70.9,64.0,30.05,East,82,0.0,-999.0,79,-99.99,,,0.00,weatherlink.com 1.10,2013-07-02 20:58:00,
2013-07-02 17:13:00,71.5,64.0,30.05,East,80,0.0,-999.0,78,-99.99,,,0.00,weatherlink.com 1.10,2013-07-02 21:13:00,
2013-07-02 17:28:00,71.5,65.0,30.05,East,86,0.0,-999.0,79,-99.99,,,0.00,weatherlink.com 1.10,2013-07-02 21:28:00,
2013-07-02 17:43:00,71.7,65.0,30.04,East,89,0.0,-999.0,79,-99.99,,,0.00,weatherlink.com 1.10,2013-07-02 21:43:00,
2013-07-02 17:58:00,71.6,64.0,30.03,NNE,30,0.0,-999.0,78,-99.99,,,0.00,weatherlink.com 1.10,2013-07-02 21:58:00,
2013-07-02 18:13:00,71.2,64.0,30.03,East,80,1.0,-999.0,79,-99.99,,,0.00,weatherlink.com 1.10,2013-07-02 22:13:00,
2013-07-02 18:28:00,71.3,65.0,30.04,East,84,0.0,-999.0,79,-99.99,,,0.00,weatherlink.com 1.10,2013-07-02 22:28:00,
2013-07-02 18:43:00,71.6,65.0,30.04,NNE,28,0.0,-999.0,79,-99.99,,,0.00,weatherlink.com 1.10,2013-07-02 22:43:00,
2013-07-02 18:58:00,72.1,65.0,30.03,ENE,57,0.0,-999.0,79,-99.99,,,0.00,weatherlink.com 1.10,2013-07-02 22:58:00,
2013-07-02 19:13:00,71.5,64.0,30.04,NE,39,0.0,-999.0,78,-99.99,,,0.00,weatherlink.com 1.10,2013-07-02 23:13:00,
2013-07-02 19:28:00,71.2,64.0,30.05,East,89,0.0,-999.0,79,-99.99,,,0.00,weatherlink.com 1.10,2013-07-02 23:28:00,
2013-07-02 19:44:00,70.8,64.0,30.05,East,84,0.0,-999.0,80,-99.99,,,0.00,weatherlink.com 1.10,2013-07-02 23:44:00,
2013-07-02 19:59:00,70.5,64.0,30.05,ENE,77,0.0,-999.0,81,-99.99,,,0.00,weatherlink.com 1.10,2013-07-02 23:59:00,
2013-07-02 20:14:00,70.4,65.0,30.05,SE,127,0.0,-999.0,82,-99.99,,,0.00,weatherlink.com 1.10,2013-07-03 00:14:00,
2013-07-02 20:29:00,70.1,64.0,30.05,SSE,165,0.0,-999.0,82,-99.99,,,0.00,weatherlink.com 1.10,2013-07-03 00:29:00,
2013-07-02 20:44:00,69.9,64.0,30.04,SSE,165,0.0,-999.0,82,-99.99,,,0.00,weatherlink.com 1.10,2013-07-03 00:44:00,
2013-07-02 20:59:00,69.4,64.0,30.05,SSE,153,0.0,-999.0,83,-99.99,,,0.00,weatherlink.com 1.10,2013-07-03 00:59:00,
2013-07-02 21:14:00,69.0,64.0,30.05,SSE,153,0.0,-999.0,84,-99.99,,,0.00,weatherlink.com 1.10,2013-07-03 01:14:00,
2013-07-02 21:29:00,68.5,64.0,30.05,SSE,153,0.0,-999.0,85,-99.99,,,0.00,weatherlink.com 1.10,2013-07-03 01:29:00,
2013-07-02 21:44:00,68.1,64.0,30.05,SSE,153,0.0,-999.0,87,-99.99,,,0.00,weatherlink.com 1.10,2013-07-03 01:44:00,
2013-07-02 22:29:00,67.4,65.0,30.07,SSE,154,0.0,-999.0,90,-99.99,,,0.00,weatherlink.com 1.10,2013-07-03 02:29:00,
2013-07-02 22:44:00,67.0,64.0,30.07,SSE,153,0.0,-999.0,90,-99.99,,,0.00,weatherlink.com 1.10,2013-07-03 02:44:00,
2013-07-02 22:59:00,66.6,64.0,30.08,SSE,153,0.0,-999.0,90,-99.99,,,0.00,weatherlink.com 1.10,2013-07-03 02:59:00,
2013-07-02 23:14:00,66.6,64.0,30.08,WSW,247,0.0,-999.0,90,-99.99,,,0.00,weatherlink.com 1.10,2013-07-03 03:14:00,
2013-07-02 23:44:00,66.5,63.0,30.08,NE,51,0.0,-999.0,89,-99.99,,,0.00,weatherlink.com 1.10,2013-07-03 03:44:00,
2013-07-02 23:59:00,66.4,63.0,30.08,ENE,58,0.0,-999.0,89,-99.99,,,0.00,weatherlink.com 1.10,2013-07-03 03:59:00,